Time;durP1;ratioP1;P1;durP2;ratioP2;P2;SDS_P1;SDS_P2;PMS_P1;PMS_P2;Temp;Humidity;BMP_temperature;BMP_pressure;BME280_temperature;BME280_humidity;BME280_pressure;Samples;Min_cycle;Max_cycle;Signal;HPM_P1;HPM_P2
2021/04/02 00:02:09;;;;;;;0.10;0.10;;;6.10;89.80;;;8.83;75.04;102633.38;4990762;28;96892;-66
2021/04/02 00:04:37;;;;;;;0.10;0.10;;;6.10;89.80;;;8.83;75.44;102636.03;4988540;28;97374;-66
2021/04/02 00:07:07;;;;;;;0.40;0.40;;;6.00;89.80;;;8.86;75.22;102629.41;4983166;28;97177;-66
2021/04/02 00:09:36;;;;;;;0.00;0.00;;;6.00;89.80;;;8.84;75.15;102631.50;4971336;28;97595;-66
2021/04/02 00:12:07;;;;;;;6.75;2.28;;;6.00;89.80;;;8.70;75.28;102633.69;4991526;28;97225;-66
2021/04/02 00:14:35;;;;;;;0.50;0.50;;;6.00;89.70;;;8.60;75.56;102630.84;4986047;28;96887;-66
2021/04/02 00:17:06;;;;;;;2.83;0.50;;;5.90;89.60;;;8.55;75.59;102641.47;4989918;28;96808;-66
2021/04/02 00:19:34;;;;;;;0.57;0.30;;;5.90;89.70;;;8.49;75.86;102634.41;4988653;28;97765;-66
2021/04/02 00:22:05;;;;;;;7.50;0.88;;;5.80;89.60;;;8.47;75.61;102644.53;4990176;28;97166;-66
2021/04/02 00:24:33;;;;;;;0.35;0.35;;;5.80;89.60;;;8.40;75.61;102635.84;4988583;28;97211;-66
2021/04/02 00:27:08;;;;;;;0.20;0.20;;;5.80;89.70;;;8.35;76.01;102640.31;4988384;28;97911;-66
2021/04/02 00:29:35;;;;;;;;;;;5.70;89.60;;;8.40;75.76;102641.19;4990148;28;98978;-66
2021/04/02 00:32:08;;;;;;;0.43;0.32;;;5.70;89.70;;;8.38;75.41;102640.63;4986110;28;97190;-66
2021/04/02 00:34:35;;;;;;;0.20;0.20;;;5.60;89.70;;;8.33;75.62;102637.88;4988987;28;96872;-66
2021/04/02 00:37:05;;;;;;;0.38;0.38;;;5.60;89.80;;;8.25;75.77;102640.09;4989140;28;97776;-66
2021/04/02 00:39:33;;;;;;;1.00;0.60;;;5.50;89.80;;;8.28;75.59;102634.31;4990065;28;97752;-67
2021/04/02 00:42:03;;;;;;;0.43;0.40;;;5.50;89.90;;;8.31;75.55;102636.50;4968943;28;97061;-66
2021/04/02 00:44:33;;;;;;;0.50;0.47;;;5.50;90.00;;;8.32;75.23;102627.44;4989136;28;96974;-66
2021/04/02 00:47:04;;;;;;;0.63;0.63;;;5.50;90.00;;;8.25;75.68;102635.59;4990364;28;97129;-66
2021/04/02 00:49:33;;;;;;;1.88;0.55;;;5.50;90.00;;;8.20;75.55;102630.16;4971666;28;97643;-66
2021/04/02 00:52:06;;;;;;;0.30;0.30;;;5.40;90.00;;;8.19;75.67;102623.22;4986422;28;97165;-67
2021/04/02 00:54:34;;;;;;;0.73;0.73;;;5.40;90.00;;;8.13;75.62;102624.13;4971722;28;97212;-67
2021/04/02 00:57:06;;;;;;;0.30;0.30;;;5.40;90.00;;;8.14;75.41;102630.28;4988872;28;98039;-67
2021/04/02 00:59:34;;;;;;;0.10;0.10;;;5.40;90.00;;;8.09;75.86;102630.97;4989860;28;97319;-67
2021/04/02 01:02:05;;;;;;;0.10;0.10;;;5.40;90.00;;;8.07;75.73;102627.75;4986331;28;96985;-67
2021/04/02 01:04:33;;;;;;;0.10;0.10;;;5.30;90.00;;;8.05;75.63;102629.03;5007386;28;96903;-66
2021/04/02 01:07:05;;;;;;;0.15;0.15;;;5.30;90.00;;;8.03;75.42;102623.13;4985322;28;98209;-67
2021/04/02 01:09:33;;;;;;;3.85;0.63;;;;;;;8.01;76.19;102623.38;4988010;28;97989;-66
2021/04/02 01:12:03;;;;;;;0.20;0.20;;;5.30;89.70;;;8.00;75.90;102635.09;4969552;28;96827;-66
2021/04/02 01:14:33;;;;;;;0.20;0.20;;;5.30;90.00;;;7.96;75.95;102623.28;4984997;28;96938;-66
2021/04/02 01:17:03;;;;;;;0.10;0.10;;;5.20;90.30;;;7.93;75.69;102626.44;4984057;28;97653;-67
2021/04/02 01:19:43;;;;;;;0.10;0.10;;;5.20;90.00;;;7.92;75.77;102623.97;4990599;28;97063;-67
2021/04/02 01:22:19;;;;;;;0.60;0.60;;;5.20;90.00;;;7.88;75.79;102621.00;4999449;28;97926;-67
2021/04/02 01:25:14;;;;;;;0.25;0.25;;;5.10;90.00;;;7.83;76.04;102620.06;4982774;28;96971;-66
2021/04/02 01:28:08;;;;;;;0.10;0.10;;;5.10;90.00;;;7.75;76.04;102629.25;4971328;28;97884;-66
2021/04/02 01:30:39;;;;;;;0.30;0.30;;;5.10;90.00;;;7.72;76.28;102619.06;4986853;28;96947;-66
2021/04/02 01:33:11;;;;;;;0.13;0.13;;;5.10;90.10;;;7.64;75.75;102623.16;4988440;28;97074;-66
2021/04/02 01:35:43;;;;;;;0.30;0.30;;;5.00;90.00;;;7.59;75.75;102618.53;5002696;28;97093;-66
2021/04/02 01:38:19;;;;;;;0.10;0.10;;;5.00;90.00;;;7.59;75.88;102625.72;4984758;28;97894;-67
2021/04/02 01:40:57;;;;;;;2.10;1.52;;;4.90;90.00;;;7.60;76.21;102622.00;4998354;28;97337;-66
2021/04/02 01:43:33;;;;;;;0.30;0.30;;;4.90;90.00;;;7.53;75.97;102616.00;4985281;28;96812;-66
2021/04/02 01:46:07;;;;;;;4.70;0.40;;;4.90;90.10;;;7.53;76.42;102618.66;5005623;28;98700;-66
2021/04/02 01:48:40;;;;;;;0.10;0.10;;;4.80;90.10;;;7.56;75.50;102619.00;4987735;28;97003;-66
2021/04/02 01:51:10;;;;;;;15.05;2.08;;;4.80;90.10;;;7.50;76.15;102609.28;5004513;28;97192;-66
2021/04/02 01:53:45;;;;;;;0.40;0.40;;;4.80;90.10;;;7.42;75.74;102609.66;4986580;28;98599;-66
2021/04/02 01:56:17;;;;;;;0.10;0.10;;;4.80;90.10;;;7.42;76.38;102614.97;4989208;28;97050;-66
2021/04/02 01:58:47;;;;;;;0.20;0.20;;;4.70;90.10;;;7.41;76.03;102610.69;4985317;28;98054;-66
2021/04/02 02:01:22;;;;;;;0.35;0.35;;;4.70;90.10;;;7.39;75.45;102615.44;4987497;28;97935;-66
2021/04/02 02:03:56;;;;;;;0.30;0.30;;;4.70;90.10;;;7.34;76.35;102615.31;4984479;28;97338;-66
2021/04/02 02:06:33;;;;;;;0.47;0.47;;;4.70;90.10;;;7.37;75.81;102614.88;4985410;28;97123;-66
2021/04/02 02:09:22;;;;;;;0.52;0.50;;;4.60;90.10;;;7.32;76.30;102616.63;4970900;28;97916;-66
2021/04/02 02:11:57;;;;;;;0.10;0.10;;;4.60;90.10;;;7.31;76.28;102620.31;4984967;28;97679;-66
2021/04/02 02:14:41;;;;;;;2.30;1.80;;;4.60;90.10;;;7.28;75.98;102612.81;4986958;28;96815;-67
2021/04/02 02:17:22;;;;;;;8.77;0.75;;;4.60;90.10;;;7.31;75.66;102621.13;5005130;28;96713;-67
2021/04/02 02:19:51;;;;;;;0.17;0.17;;;4.60;90.10;;;7.39;76.00;102612.78;4987493;28;96755;-67
2021/04/02 02:22:23;;;;;;;0.20;0.20;;;4.60;90.10;;;7.38;75.53;102615.66;4988660;28;99461;-67
2021/04/02 02:25:07;;;;;;;0.20;0.20;;;4.60;90.10;;;7.41;75.77;102613.34;4988058;28;96737;-66
2021/04/02 02:27:38;;;;;;;5.38;1.75;;;4.60;90.10;;;7.42;75.73;102619.47;4989375;28;100512;-66
2021/04/02 02:30:13;;;;;;;0.10;0.10;;;4.60;90.10;;;7.45;75.08;102621.69;4985525;28;98462;-66
2021/04/02 02:32:44;;;;;;;0.10;0.10;;;4.60;90.10;;;7.54;75.53;102620.28;5001968;28;97814;-66
2021/04/02 02:35:14;;;;;;;0.10;0.10;;;4.60;90.10;;;7.52;75.12;102617.06;4987059;28;96803;-66
2021/04/02 02:37:46;;;;;;;0.20;0.20;;;4.60;90.20;;;7.48;75.63;102615.88;4986860;28;96806;-66
2021/04/02 02:40:20;;;;;;;0.98;0.55;;;4.60;90.10;;;7.46;75.34;102621.47;4986478;28;97154;-66
2021/04/02 02:42:53;;;;;;;0.10;0.10;;;4.50;90.10;;;7.40;75.28;102622.41;5002699;28;97698;-66
2021/04/02 02:45:24;;;;;;;0.20;0.20;;;4.50;90.20;;;7.34;75.61;102620.66;4987120;28;97285;-66
2021/04/02 02:47:54;;;;;;;0.10;0.10;;;4.50;90.10;;;7.34;75.14;102619.84;4988081;28;97116;-66
2021/04/02 02:50:30;;;;;;;0.10;0.10;;;4.50;90.10;;;7.32;74.90;102617.41;4988240;28;97318;-66
2021/04/02 02:53:00;;;;;;;0.35;0.35;;;4.50;90.20;;;7.28;75.41;102613.59;5001823;28;98237;-66
2021/04/02 02:55:36;;;;;;;18.63;0.57;;;4.50;90.20;;;7.25;75.54;102622.06;4987691;28;97234;-66
2021/04/02 02:58:08;;;;;;;0.20;0.20;;;4.40;90.20;;;7.23;75.57;102623.34;4987997;28;97085;-66
2021/04/02 03:00:44;;;;;;;5.25;0.95;;;4.40;90.20;;;7.23;75.38;102628.69;5002564;28;98067;-66
2021/04/02 03:03:18;;;;;;;2.05;1.10;;;4.40;90.20;;;7.20;75.55;102629.13;4987091;28;97879;-66
2021/04/02 03:05:52;;;;;;;0.10;0.10;;;4.40;90.20;;;7.22;75.38;102627.06;4985998;28;96831;-66
2021/04/02 03:08:45;;;;;;;0.47;0.47;;;4.40;90.20;;;7.17;75.26;102624.25;4988438;28;97017;-67
2021/04/02 03:11:21;;;;;;;0.82;0.82;;;4.40;90.20;;;7.12;75.73;102627.66;4986144;28;97842;-67
2021/04/02 03:13:57;;;;;;;18.05;0.77;;;4.30;90.20;;;7.10;76.19;102624.41;4986083;28;97783;-66
2021/04/02 03:16:32;;;;;;;0.10;0.10;;;4.30;90.20;;;7.15;75.75;102615.69;4985309;28;97127;-66
2021/04/02 03:19:05;;;;;;;0.30;0.30;;;4.30;90.20;;;7.12;75.82;102619.66;4988314;28;96958;-66
2021/04/02 03:21:36;;;;;;;1.45;0.55;;;4.30;90.20;;;7.09;75.27;102624.63;5005754;28;96958;-67
2021/04/02 03:24:17;;;;;;;0.10;0.10;;;4.30;90.20;;;7.11;74.89;102625.19;4984774;28;98441;-66
2021/04/02 03:26:53;;;;;;;0.20;0.20;;;4.20;90.20;;;7.11;74.97;102628.69;4984196;28;97549;-66
2021/04/02 03:29:24;;;;;;;0.20;0.20;;;4.20;90.20;;;7.10;75.07;102619.06;4966455;28;97590;-66
2021/04/02 03:32:03;;;;;;;0.10;0.10;;;4.20;90.20;;;7.07;75.08;102622.22;4995385;28;100661;-66
2021/04/02 03:34:38;;;;;;;0.20;0.20;;;4.20;90.20;;;7.07;74.79;102626.72;4969360;28;96778;-67
2021/04/02 03:37:11;;;;;;;0.45;0.25;;;4.20;90.30;;;7.09;75.61;102632.63;5003286;28;96965;-67
2021/04/02 03:39:49;;;;;;;1.13;1.02;;;4.20;90.30;;;7.15;75.23;102631.69;5001550;28;96853;-67
2021/04/02 03:42:22;;;;;;;0.10;0.10;;;4.20;90.40;;;7.24;74.75;102638.31;4985950;28;97923;-67
2021/04/02 03:44:52;;;;;;;0.20;0.20;;;4.20;90.40;;;7.23;75.22;102628.69;4982333;28;97749;-68
2021/04/02 03:47:23;;;;;;;0.35;0.35;;;4.20;90.40;;;7.18;74.92;102631.22;5005254;28;97343;-67
2021/04/02 03:50:05;;;;;;;0.10;0.10;;;4.20;90.30;;;7.16;74.65;102627.97;4991666;28;96818;-66
2021/04/02 03:52:41;;;;;;;0.10;0.10;;;4.20;90.30;;;7.13;75.59;102626.59;5004306;28;97103;-67
2021/04/02 03:55:14;;;;;;;0.40;0.40;;;4.20;90.30;;;7.14;75.03;102635.41;4985113;28;97488;-67
2021/04/02 03:57:46;;;;;;;0.10;0.10;;;4.20;90.30;;;7.13;74.48;102628.44;4987353;28;97260;-67
2021/04/02 04:00:28;;;;;;;0.15;0.15;;;4.20;90.30;;;7.12;74.41;102632.16;4990489;28;96883;-67
2021/04/02 04:03:06;;;;;;;0.98;0.98;;;4.20;90.30;;;7.11;74.99;102639.34;4985475;28;96861;-67
2021/04/02 04:05:39;;;;;;;0.20;0.20;;;4.20;90.40;;;7.14;75.08;102636.22;4987798;28;97767;-67
2021/04/02 04:08:14;;;;;;;0.10;0.10;;;4.20;90.40;;;7.19;75.26;102640.84;4983890;28;96908;-66
2021/04/02 04:10:45;;;;;;;0.20;0.20;;;4.20;90.50;;;7.28;74.75;102642.13;4986295;28;96990;-66
2021/04/02 04:13:18;;;;;;;0.10;0.10;;;4.20;90.50;;;7.39;74.96;102636.78;5005987;28;97666;-66
2021/04/02 04:15:50;;;;;;;0.15;0.15;;;4.20;90.50;;;7.40;74.62;102637.56;4989645;28;97720;-66
2021/04/02 04:18:22;;;;;;;0.10;0.10;;;4.30;90.50;;;7.45;74.92;102633.16;4991864;28;97102;-66
2021/04/02 04:20:55;;;;;;;8.10;0.82;;;4.30;90.40;;;7.52;74.84;102633.84;4983273;28;97476;-66
2021/04/02 04:23:36;;;;;;;0.10;0.10;;;4.40;90.50;;;7.58;74.19;102635.56;4985266;28;96917;-66
2021/04/02 04:26:07;;;;;;;0.20;0.20;;;4.40;90.50;;;7.64;74.28;102639.16;4987306;28;96986;-66
2021/04/02 04:28:40;;;;;;;0.28;0.28;;;4.40;90.40;;;7.69;75.06;102646.22;4992041;28;97472;-66
2021/04/02 04:31:10;;;;;;;1.10;0.82;;;4.50;90.50;;;7.78;74.27;102655.47;4986243;28;96835;-66
2021/04/02 04:33:39;;;;;;;0.52;0.52;;;4.60;90.50;;;7.88;74.48;102649.53;4985962;28;96912;-66
2021/04/02 04:36:10;;;;;;;0.20;0.20;;;4.60;90.80;;;7.92;74.52;102656.00;4990206;28;96815;-66
2021/04/02 04:38:41;;;;;;;7.53;0.60;;;4.70;90.50;;;8.02;74.42;102657.00;4987443;28;96847;-66
2021/04/02 04:41:10;;;;;;;0.10;0.10;;;4.70;90.50;;;8.03;73.89;102661.31;4986704;28;96877;-66
2021/04/02 04:43:41;;;;;;;0.10;0.10;;;4.70;90.40;;;8.04;73.82;102651.44;4988706;28;98690;-66
2021/04/02 04:46:09;;;;;;;0.40;0.40;;;4.80;90.40;;;8.03;73.71;102658.63;4990716;28;97656;-66
2021/04/02 04:48:37;;;;;;;0.10;0.10;;;4.80;90.50;;;8.07;74.30;102659.78;4992041;28;96916;-66
2021/04/02 04:51:08;;;;;;;0.20;0.20;;;4.80;90.50;;;8.11;73.76;102657.44;4990838;28;97458;-66
2021/04/02 04:53:40;;;;;;;0.45;0.45;;;4.80;90.50;;;8.08;74.42;102653.38;4989810;28;97456;-66
2021/04/02 04:56:13;;;;;;;0.17;0.17;;;4.90;90.50;;;8.04;74.63;102654.13;4986839;28;97820;-66
2021/04/02 04:58:45;;;;;;;0.20;0.20;;;4.80;90.40;;;8.04;74.24;102654.13;4987805;28;97004;-66
2021/04/02 05:01:15;;;;;;;0.57;0.57;;;4.90;90.50;;;8.04;74.20;102665.59;4986900;28;97155;-66
2021/04/02 05:03:44;;;;;;;0.10;0.10;;;4.80;90.40;;;8.07;74.74;102665.13;4989972;28;96951;-66
2021/04/02 05:06:16;;;;;;;1.10;1.02;;;4.80;90.40;;;8.03;74.42;102666.63;4988140;28;98263;-66
2021/04/02 05:08:47;;;;;;;0.30;0.30;;;4.90;90.40;;;8.08;74.05;102665.94;4991104;28;97406;-66
2021/04/02 05:11:20;;;;;;;0.10;0.10;;;4.90;90.40;;;7.94;74.62;102665.41;4986201;28;96786;-66
2021/04/02 05:13:49;;;;;;;;;;;4.80;90.40;;;7.98;74.66;102669.22;4992803;28;97449;-66
2021/04/02 05:16:20;;;;;;;0.20;0.20;;;4.90;90.40;;;7.96;74.46;102657.97;4989982;28;97250;-66
2021/04/02 05:18:49;;;;;;;0.68;0.68;;;4.80;90.30;;;7.93;74.32;102663.78;4986729;28;96863;-66
2021/04/02 05:21:17;;;;;;;0.55;0.35;;;4.90;90.30;;;7.90;74.34;102668.78;4990414;28;97272;-66
2021/04/02 05:23:45;;;;;;;0.60;0.60;;;4.80;90.30;;;7.94;74.37;102661.91;4988251;28;97944;-66
2021/04/02 05:26:16;;;;;;;0.10;0.10;;;4.90;90.30;;;8.04;74.73;102662.94;4990317;28;97675;-67
2021/04/02 05:28:44;;;;;;;0.35;0.35;;;4.80;90.30;;;8.09;74.08;102673.69;4991161;28;96760;-67
2021/04/02 05:31:11;;;;;;;4.25;1.45;;;4.90;90.40;;;8.16;74.28;102666.38;4990697;28;97484;-67
2021/04/02 05:33:39;;;;;;;0.10;0.10;;;4.90;90.40;;;8.25;73.67;102669.47;4987807;28;98038;-67
2021/04/02 05:36:07;;;;;;;0.47;0.47;;;5.00;90.40;;;8.31;74.12;102681.91;4984786;28;97241;-68
2021/04/02 05:38:36;;;;;;;0.20;0.20;;;5.00;90.40;;;8.36;73.90;102669.44;5005207;28;96969;-66
2021/04/02 05:41:09;;;;;;;0.80;0.52;;;5.10;90.40;;;8.33;74.15;102677.94;4990193;28;97160;-66
2021/04/02 05:43:43;;;;;;;0.30;0.30;;;5.10;90.30;;;8.39;74.37;102676.16;4986775;28;98471;-66
2021/04/02 05:46:15;;;;;;;0.20;0.20;;;5.20;90.30;;;8.45;74.50;102670.69;4990795;28;97681;-67
2021/04/02 05:48:44;;;;;;;0.17;0.17;;;5.20;90.30;;;8.54;74.38;102682.59;4991542;28;97363;-67
2021/04/02 05:51:16;;;;;;;0.22;0.22;;;5.30;90.30;;;8.63;74.34;102683.00;4987805;28;96852;-67
2021/04/02 05:53:46;;;;;;;0.20;0.20;;;5.40;90.30;;;8.78;73.94;102684.09;4988268;28;97499;-67
2021/04/02 05:56:14;;;;;;;0.38;0.38;;;5.50;90.30;;;8.83;73.93;102678.81;4988404;28;97751;-67
2021/04/02 05:58:43;;;;;;;0.00;0.00;;;5.50;90.30;;;8.85;74.15;102676.69;4990954;28;96728;-67
2021/04/02 06:01:11;;;;;;;0.75;0.75;;;5.60;90.20;;;8.91;74.29;102678.41;4985867;28;97253;-67
2021/04/02 06:03:40;;;;;;;0.10;0.10;;;5.60;90.20;;;9.05;74.19;102681.56;4990317;28;97715;-67
2021/04/02 06:06:12;;;;;;;0.10;0.10;;;5.70;90.20;;;9.13;73.84;102681.13;4973837;28;97678;-67
2021/04/02 06:08:45;;;;;;;1.73;0.93;;;5.80;90.20;;;9.25;73.58;102677.31;4990223;28;96813;-67
2021/04/02 06:11:14;;;;;;;;;;;5.80;90.20;;;9.34;73.35;102682.00;4988031;28;97003;-67
2021/04/02 06:13:42;;;;;;;0.73;0.50;;;5.90;90.20;;;9.40;73.55;102678.34;5001864;28;97793;-67
2021/04/02 06:16:10;;;;;;;0.40;0.40;;;6.00;90.10;;;9.52;73.57;102686.25;4987637;28;97415;-67
2021/04/02 06:18:40;;;;;;;2.35;1.15;;;6.10;90.10;;;9.67;73.14;102684.59;4988318;28;96803;-67
2021/04/02 06:21:09;;;;;;;0.50;0.50;;;6.20;90.10;;;9.91;72.83;102669.91;4986927;28;98052;-67
2021/04/02 06:23:38;;;;;;;0.73;0.73;;;6.30;90.00;;;10.17;72.25;102674.53;4989663;28;97839;-67
2021/04/02 06:26:11;;;;;;;7.63;0.70;;;6.50;90.00;;;10.59;71.52;102672.81;4984029;28;96802;-67
2021/04/02 06:28:41;;;;;;;0.25;0.25;;;6.70;89.60;;;11.19;69.81;102668.72;4988130;28;97397;-67
2021/04/02 06:31:12;;;;;;;0.10;0.10;;;7.00;89.20;;;11.21;70.31;102668.47;4987777;28;97293;-67
2021/04/02 06:33:44;;;;;;;0.10;0.10;;;7.20;88.80;;;12.89;66.86;102674.66;4988349;28;96932;-67
2021/04/02 06:36:15;;;;;;;0.32;0.32;;;7.70;88.60;;;15.11;61.38;102667.69;4988855;28;99221;-67
2021/04/02 06:38:47;;;;;;;0.32;0.32;;;8.70;88.00;;;15.49;60.07;102661.38;4982905;28;96728;-68
2021/04/02 06:41:19;;;;;;;0.30;0.28;;;9.30;86.00;;;14.19;65.37;102662.47;4988034;28;97398;-67
2021/04/02 06:43:49;;;;;;;2.40;0.95;;;9.60;86.00;;;14.02;66.47;102665.75;4986356;28;97923;-67
2021/04/02 06:46:24;;;;;;;0.32;0.32;;;9.60;86.50;;;13.89;67.24;102666.38;4989278;28;97590;-68
2021/04/02 06:48:53;;;;;;;0.35;0.35;;;9.70;86.70;;;14.80;65.35;102671.75;4988102;28;97046;-67
2021/04/02 06:51:23;;;;;;;0.30;0.30;;;10.00;86.60;;;14.86;66.26;102669.78;4987770;28;97004;-67
2021/04/02 06:53:53;;;;;;;7.30;0.77;;;10.20;86.50;;;15.37;64.80;102674.47;4982684;28;97919;-67
2021/04/02 06:56:22;;;;;;;2.35;0.93;;;10.50;86.50;;;15.60;65.69;102675.56;4985274;28;96905;-67
2021/04/02 06:58:53;;;;;;;0.25;0.25;;;10.70;86.30;;;15.28;66.26;102678.88;4985417;28;96763;-67
2021/04/02 07:01:23;;;;;;;4.45;1.77;;;10.90;86.00;;;15.19;66.21;102675.16;4989486;28;101118;-67
2021/04/02 07:03:52;;;;;;;0.25;0.25;;;11.00;86.10;;;15.24;66.99;102677.00;4984125;28;96675;-67
2021/04/02 07:06:22;;;;;;;3.85;0.88;;;11.10;86.20;;;15.80;65.46;102668.03;4986127;28;97869;-67
2021/04/02 07:08:52;;;;;;;0.38;0.20;;;11.30;86.10;;;15.54;66.87;102677.50;4987260;28;97068;-67
2021/04/02 07:11:22;;;;;;;8.40;0.80;;;11.40;85.70;;;15.19;67.15;102680.56;4989301;28;97858;-67
2021/04/02 07:13:53;;;;;;;0.22;0.22;;;11.40;85.70;;;15.30;67.47;102689.41;5002955;28;98010;-67
2021/04/02 07:16:23;;;;;;;8.27;1.45;;;11.40;85.80;;;15.23;68.44;102686.22;4985694;28;96755;-67
2021/04/02 07:18:51;;;;;;;0.50;0.20;;;11.40;86.10;;;15.06;68.09;102678.53;4986823;28;97277;-67
2021/04/02 07:21:19;;;;;;;0.55;0.40;;;11.30;86.10;;;14.66;69.59;102676.16;4989633;28;97222;-67
2021/04/02 07:23:48;;;;;;;0.22;0.22;;;11.30;86.40;;;14.91;68.85;102681.34;4988153;28;97574;-67
2021/04/02 07:26:16;;;;;;;0.17;0.17;;;11.20;86.30;;;15.58;67.12;102685.88;4989693;28;97718;-67
2021/04/02 07:28:49;;;;;;;0.10;0.10;;;11.30;86.50;;;15.76;67.39;102683.22;4991369;28;97256;-67
2021/04/02 07:31:21;;;;;;;1.27;0.40;;;11.40;86.30;;;15.67;67.87;102686.84;4989873;28;97471;-67
2021/04/02 07:33:50;;;;;;;0.10;0.10;;;11.60;86.00;;;15.50;67.80;102686.50;4967070;28;98272;-67
2021/04/02 07:36:21;;;;;;;2.72;0.85;;;11.60;85.90;;;16.40;65.75;102680.75;4986862;28;97676;-67
2021/04/02 07:38:52;;;;;;;13.05;0.30;;;11.70;85.70;;;16.85;64.95;102688.16;4987918;28;96924;-67
2021/04/02 07:41:22;;;;;;;0.10;0.10;;;12.00;85.30;;;16.54;65.02;102676.22;4991187;28;96985;-67
2021/04/02 07:43:56;;;;;;;8.68;0.77;;;12.20;84.80;;;16.44;66.09;102681.75;4992808;28;98104;-67
2021/04/02 07:46:28;;;;;;;0.47;0.45;;;12.20;84.60;;;16.31;66.58;102677.06;4988183;28;97375;-67
2021/04/02 07:49:05;;;;;;;0.10;0.10;;;12.20;84.70;;;16.88;65.54;102687.56;4990070;28;96993;-67
2021/04/02 07:51:46;;;;;;;17.25;1.95;;;12.40;84.50;;;16.77;65.58;102686.94;4972300;28;96985;-67
2021/04/02 07:54:18;;;;;;;0.03;0.00;;;12.50;84.60;;;17.44;63.67;102687.13;4986532;28;97058;-67
2021/04/02 07:56:48;;;;;;;0.20;0.20;;;12.60;84.30;;;16.41;66.55;102687.75;4987808;28;97788;-67
2021/04/02 07:59:17;;;;;;;0.20;0.20;;;12.60;84.50;;;16.30;68.28;102689.00;5005573;28;98166;-67
2021/04/02 08:01:58;;;;;;;0.52;0.52;;;12.50;84.80;;;15.66;69.37;102696.03;4990707;28;97252;-68
2021/04/02 08:04:37;;;;;;;0.60;0.17;;;12.40;85.10;;;15.25;70.73;102689.44;5005632;28;97975;-68
2021/04/02 08:07:15;;;;;;;0.03;0.03;;;12.20;85.20;;;14.71;71.86;102703.13;4986449;28;102654;-68
2021/04/02 08:09:47;;;;;;;0.00;0.00;;;11.90;85.30;;;14.24;72.22;102702.88;4987703;28;96872;-68
2021/04/02 08:12:32;;;;;;;4.53;1.45;;;11.60;85.60;;;13.73;73.16;102705.22;4989932;28;97901;-67
2021/04/02 08:15:09;;;;;;;0.68;0.32;;;11.30;85.60;;;13.49;73.46;102717.69;4990447;28;97364;-68
2021/04/02 08:17:37;;;;;;;3.10;1.40;;;11.00;85.80;;;13.18;73.65;102706.16;4981412;28;98065;-68
2021/04/02 08:20:11;;;;;;;0.20;0.20;;;10.70;85.80;;;13.11;73.41;102710.19;4987496;28;96887;-68
2021/04/02 08:22:39;;;;;;;0.73;0.38;;;10.40;86.10;;;13.15;73.06;102704.03;4986566;28;97130;-68
2021/04/02 08:25:12;;;;;;;0.63;0.63;;;10.30;86.50;;;13.30;72.87;102709.38;4986808;28;96912;-68
2021/04/02 08:27:42;;;;;;;0.20;0.20;;;10.20;86.90;;;13.17;72.69;102701.84;4990045;28;97732;-68
2021/04/02 08:30:16;;;;;;;0.00;0.00;;;10.10;87.00;;;12.98;73.40;102708.06;4986159;28;96697;-68
2021/04/02 08:32:46;;;;;;;;;;;10.00;87.20;;;12.91;73.27;102710.16;5001280;28;97056;-67
2021/04/02 08:35:16;;;;;;;2.47;1.75;;;9.90;87.40;;;12.93;73.34;102703.47;4981124;28;98255;-67
2021/04/02 08:37:58;;;;;;;0.17;0.17;;;9.90;87.70;;;13.00;73.04;102714.00;4986963;28;97676;-68
2021/04/02 08:40:26;;;;;;;0.20;0.20;;;9.80;87.60;;;12.99;72.77;102712.38;4986603;28;96957;-68
2021/04/02 08:43:03;;;;;;;0.38;0.38;;;9.80;87.60;;;13.04;72.83;102715.84;5002659;28;96920;-68
2021/04/02 08:45:36;;;;;;;0.17;0.10;;;9.70;87.70;;;13.14;72.01;102710.47;4987022;28;97273;-68
2021/04/02 08:48:07;;;;;;;1.90;0.73;;;9.70;87.80;;;13.12;72.38;102714.50;4984461;28;97897;-68
2021/04/02 08:50:35;;;;;;;0.77;0.65;;;9.80;87.70;;;13.09;72.62;102715.06;4984893;28;97285;-68
2021/04/02 08:53:06;;;;;;;0.10;0.10;;;9.80;87.60;;;13.06;72.67;102710.22;4970155;28;97587;-68
2021/04/02 08:55:34;;;;;;;0.00;0.00;;;9.80;87.60;;;13.06;72.72;102721.78;4972015;28;97952;-68
2021/04/02 08:58:05;;;;;;;0.65;0.50;;;9.80;87.60;;;13.00;72.82;102720.16;4984630;28;98242;-68
2021/04/02 09:00:33;;;;;;;3.40;1.58;;;9.80;87.50;;;13.04;72.60;102720.44;4991379;28;96736;-68
2021/04/02 09:03:06;;;;;;;0.40;0.40;;;9.70;87.50;;;13.11;72.73;102723.66;4973296;28;96909;-68
2021/04/02 09:05:35;;;;;;;6.30;3.22;;;9.80;87.40;;;12.99;72.53;102723.94;4987700;28;99432;-68
2021/04/02 09:08:05;;;;;;;0.10;0.10;;;9.80;87.10;;;12.94;72.77;102707.78;4985364;28;98904;-67
2021/04/02 09:10:33;;;;;;;1.75;1.00;;;9.80;87.10;;;12.96;73.20;102712.91;4989238;28;96955;-69
2021/04/02 09:13:00;;;;;;;1.45;0.85;;;9.80;87.30;;;13.08;73.13;102716.13;4986986;28;96871;-68
2021/04/02 09:15:34;;;;;;;0.10;0.10;;;9.90;87.20;;;13.09;72.75;102707.81;4989177;28;97362;-69
2021/04/02 09:18:18;;;;;;;0.20;0.20;;;9.90;87.20;;;13.25;72.37;102697.81;4985476;28;97758;-69
2021/04/02 09:20:47;;;;;;;2.45;0.95;;;9.90;87.10;;;13.44;71.89;102696.97;4987901;28;97422;-68
2021/04/02 09:23:15;;;;;;;0.00;0.00;;;10.00;87.00;;;13.75;71.15;102686.91;4986748;28;96880;-68
2021/04/02 09:25:45;;;;;;;0.20;0.20;;;10.10;86.90;;;13.92;70.57;102690.09;4989741;28;97856;-69
2021/04/02 09:28:13;;;;;;;0.30;0.30;;;10.20;86.70;;;13.86;71.00;102685.81;4989309;28;97248;-68
2021/04/02 09:30:41;;;;;;;8.93;0.52;;;10.30;86.50;;;13.92;70.86;102690.88;4990200;28;96684;-68
2021/04/02 09:33:10;;;;;;;0.20;0.20;;;10.40;86.60;;;13.92;71.13;102690.09;4975659;28;97191;-68
2021/04/02 09:35:38;;;;;;;0.10;0.10;;;10.40;86.50;;;14.01;70.96;102683.03;4985175;28;97431;-69
2021/04/02 09:38:06;;;;;;;2.08;0.98;;;10.50;86.30;;;14.00;70.88;102689.50;4989532;28;97759;-69
2021/04/02 09:40:34;;;;;;;1.13;1.02;;;10.50;86.30;;;13.90;71.08;102689.56;5005206;28;96819;-69
2021/04/02 09:43:04;;;;;;;0.00;0.00;;;10.50;86.30;;;13.81;71.72;102689.31;4990820;28;97237;-69
2021/04/02 09:45:34;;;;;;;0.08;0.08;;;10.50;86.60;;;13.65;72.05;102693.13;4987513;28;97799;-69
2021/04/02 09:48:21;;;;;;;2.45;0.47;;;10.40;86.50;;;13.49;72.60;102704.22;4988267;28;97641;-69
2021/04/02 09:50:49;;;;;;;0.52;0.52;;;10.40;86.50;;;13.38;72.69;102705.31;4989925;28;97192;-69
2021/04/02 09:53:17;;;;;;;0.40;0.40;;;10.30;86.30;;;13.30;72.32;102703.19;4968296;28;97046;-68
2021/04/02 09:55:45;;;;;;;0.57;0.57;;;10.20;86.40;;;13.29;72.57;102704.28;4988937;28;97486;-69
2021/04/02 09:58:12;;;;;;;0.08;0.08;;;10.20;86.40;;;13.49;72.28;102712.28;4990065;28;97933;-69
2021/04/02 10:00:40;;;;;;;0.10;0.10;;;10.20;86.70;;;13.55;71.55;102706.63;4986512;28;97490;-69
2021/04/02 10:03:13;;;;;;;1.73;0.15;;;10.20;86.60;;;13.55;71.86;102693.16;4991117;28;97358;-68
2021/04/02 10:05:42;;;;;;;0.85;0.85;;;10.20;86.70;;;13.68;71.56;102689.09;4988918;28;96810;-69
2021/04/02 10:08:09;;;;;;;0.22;0.22;;;10.20;86.70;;;13.99;70.63;102680.63;4987727;28;97086;-68
2021/04/02 10:10:37;;;;;;;3.40;0.57;;;10.30;86.70;;;14.74;69.08;102670.19;4989113;28;97293;-69
2021/04/02 10:13:05;;;;;;;0.10;0.10;;;10.60;86.60;;;15.45;67.88;102673.84;4986159;28;96992;-68
2021/04/02 10:15:33;;;;;;;1.95;0.32;;;10.90;86.20;;;15.84;65.92;102669.88;4988006;28;97964;-69
2021/04/02 10:18:03;;;;;;;1.25;0.82;;;11.30;85.70;;;15.95;67.30;102687.56;4986875;28;99005;-70
2021/04/02 10:20:33;;;;;;;1.50;0.60;;;11.60;85.40;;;15.82;67.87;102685.56;5002182;28;96832;-68
2021/04/02 10:23:04;;;;;;;3.35;1.95;;;11.70;85.00;;;15.49;68.26;102696.50;4984457;28;97015;-68
2021/04/02 10:25:33;;;;;;;0.10;0.10;;;11.80;84.80;;;15.39;69.48;102696.59;4984090;28;97497;-68
2021/04/02 10:28:03;;;;;;;0.28;0.28;;;11.80;84.80;;;15.23;69.25;102708.59;4984654;28;97735;-68
2021/04/02 10:30:31;;;;;;;0.00;0.00;;;11.70;84.90;;;15.08;69.66;102707.94;4987567;28;97263;-69
2021/04/02 10:32:59;;;;;;;0.13;0.13;;;11.70;84.90;;;15.14;69.47;102710.31;4982836;28;97765;-68
2021/04/02 10:35:30;;;;;;;0.10;0.10;;;11.60;85.00;;;15.65;68.55;102707.94;5001132;28;98579;-66
2021/04/02 10:37:57;;;;;;;2.42;0.88;;;11.70;85.10;;;15.76;68.70;102694.03;4986802;28;97672;-65
2021/04/02 10:40:26;;;;;;;0.10;0.10;;;11.80;85.10;;;16.46;66.33;102699.31;4986293;28;96807;-66
2021/04/02 10:42:54;;;;;;;0.60;0.38;;;12.00;85.20;;;16.81;66.52;102687.13;4984296;28;96798;-66